createdAt,value
2024-05-09T00:00:47.458Z,102255.06
2024-05-09T00:03:15.382Z,102253.59
2024-05-09T00:05:44.271Z,102257.19
2024-05-09T00:08:12.952Z,102231.06
2024-05-09T00:10:41.460Z,102252.91
2024-05-09T00:13:11.367Z,102256.09
2024-05-09T00:15:39.556Z,102223.47
2024-05-09T00:18:08.131Z,102251.84
2024-05-09T00:20:39.795Z,102229.25
2024-05-09T00:23:13.720Z,102245.28
2024-05-09T00:25:45.559Z,102221.22
2024-05-09T00:28:13.742Z,102232.13
2024-05-09T00:30:41.843Z,102244.84
2024-05-09T00:33:10.988Z,102207.69
2024-05-09T00:35:39.905Z,102240.28
2024-05-09T00:38:08.135Z,102247.03
2024-05-09T00:40:40.463Z,102223.88
2024-05-09T00:43:14.765Z,102241.69
2024-05-09T00:45:44.177Z,102222.66
2024-05-09T00:48:15.424Z,102244.78
2024-05-09T00:50:47.357Z,102247.41
2024-05-09T00:53:17.528Z,102239.13
2024-05-09T00:55:46.310Z,102230.88
2024-05-09T00:58:17.279Z,102217.16
2024-05-09T01:00:45.470Z,102226.16
2024-05-09T01:03:14.368Z,102231.88
2024-05-09T01:05:44.183Z,102234.38
2024-05-09T01:08:13.446Z,102208.03
2024-05-09T01:10:44.097Z,102225.06
2024-05-09T01:13:14.053Z,102216.81
2024-05-09T01:15:41.976Z,102225.69
2024-05-09T01:18:12.634Z,102236.75
2024-05-09T01:20:44.064Z,102217.50
2024-05-09T01:23:15.722Z,102201.16
2024-05-09T01:25:46.216Z,102194.09
2024-05-09T01:28:15.072Z,102215.06
2024-05-09T01:30:42.906Z,102233.00
2024-05-09T01:33:12.138Z,102232.75
2024-05-09T01:35:42.022Z,102216.41
2024-05-09T01:38:14.194Z,102212.66
2024-05-09T01:40:43.810Z,102208.84
2024-05-09T01:43:12.319Z,102232.53
2024-05-09T01:45:41.212Z,102212.84
2024-05-09T01:48:10.479Z,102216.56
2024-05-09T01:50:41.871Z,102212.09
2024-05-09T01:53:13.525Z,102208.69
2024-05-09T01:55:42.048Z,102226.09
2024-05-09T01:58:10.019Z,102230.00
2024-05-09T02:00:42.216Z,102230.56
2024-05-09T02:03:15.731Z,102223.34
2024-05-09T02:05:47.551Z,102225.31
2024-05-09T02:08:19.470Z,102198.53
2024-05-09T02:10:49.164Z,102228.63
2024-05-09T02:13:17.286Z,102214.06
2024-05-09T02:15:45.176Z,102214.06
2024-05-09T02:18:13.533Z,102236.16
2024-05-09T02:20:42.886Z,102222.16
2024-05-09T02:23:11.958Z,102244.28
2024-05-09T02:25:40.304Z,102207.16
2024-05-09T02:28:08.318Z,102211.72
2024-05-09T02:30:40.503Z,102210.63
2024-05-09T02:33:12.831Z,102233.88
2024-05-09T02:35:43.014Z,102206.72
2024-05-09T02:38:11.856Z,102242.16
2024-05-09T02:40:40.556Z,102212.56
2024-05-09T02:43:10.542Z,102241.59
2024-05-09T02:45:40.356Z,102239.88
2024-05-09T02:48:13.148Z,102225.41
2024-05-09T02:50:42.112Z,102208.06
2024-05-09T02:53:14.046Z,102214.94
2024-05-09T02:55:43.340Z,102224.69
2024-05-09T02:58:11.694Z,102229.03
2024-05-09T03:00:42.036Z,102236.56
2024-05-09T03:03:14.124Z,102238.06
2024-05-09T03:05:45.153Z,102226.16
2024-05-09T03:08:13.487Z,102235.28
2024-05-09T03:10:41.295Z,102221.03
2024-05-09T03:13:15.816Z,102231.41
2024-05-09T03:15:45.008Z,102235.94
2024-05-09T03:18:13.434Z,102208.31
2024-05-09T03:20:43.747Z,102231.81
2024-05-09T03:23:11.746Z,102213.59
2024-05-09T03:25:39.686Z,102210.91
2024-05-09T03:28:07.734Z,102208.94
2024-05-09T03:30:40.807Z,102216.69
2024-05-09T03:33:13.384Z,102207.19
2024-05-09T03:35:42.336Z,102214.88
2024-05-09T03:38:10.551Z,102149.56
2024-05-09T03:40:49.599Z,102227.28
2024-05-09T03:43:19.204Z,102214.28
2024-05-09T03:45:50.773Z,102235.34
2024-05-09T03:48:18.863Z,102220.31
2024-05-09T03:50:47.165Z,102240.34
2024-05-09T03:53:15.888Z,102228.94
2024-05-09T03:55:43.754Z,102206.88
2024-05-09T03:58:14.223Z,102217.31
2024-05-09T04:00:42.615Z,102209.97
2024-05-09T04:03:12.463Z,102224.59
2024-05-09T04:05:43.135Z,102204.56
2024-05-09T04:08:13.574Z,102210.75
2024-05-09T04:10:42.241Z,102223.09
2024-05-09T04:13:11.122Z,102208.31
2024-05-09T04:15:39.227Z,102209.25
2024-05-09T04:18:07.161Z,102217.72
2024-05-09T04:20:39.119Z,102212.19
2024-05-09T04:23:13.731Z,102231.31
2024-05-09T04:25:44.980Z,102236.56
2024-05-09T04:28:13.510Z,102199.53
2024-05-09T04:30:42.117Z,102219.84
2024-05-09T04:33:12.710Z,102229.75
2024-05-09T04:35:43.742Z,102208.91
2024-05-09T04:38:12.881Z,102234.66
2024-05-09T04:40:41.093Z,102236.69
2024-05-09T04:43:17.380Z,102235.19
2024-05-09T04:45:45.374Z,102234.34
2024-05-09T04:48:13.334Z,102198.41
2024-05-09T04:50:41.504Z,102214.69
2024-05-09T04:53:10.991Z,102226.91
2024-05-09T04:55:40.625Z,102224.44
2024-05-09T04:58:12.408Z,102230.78
2024-05-09T05:00:41.530Z,102227.19
2024-05-09T05:03:14.599Z,102219.47
2024-05-09T05:05:45.681Z,102226.81
2024-05-09T05:08:19.167Z,102226.31
2024-05-09T05:10:48.881Z,102227.25
2024-05-09T05:13:20.312Z,102202.19
2024-05-09T05:15:58.136Z,102232.84
2024-05-09T05:18:28.094Z,102216.22
2024-05-09T05:20:57.104Z,102236.03
2024-05-09T05:23:25.655Z,102211.28
2024-05-09T05:25:55.391Z,102224.66
2024-05-09T05:28:23.720Z,102228.59
2024-05-09T05:30:51.511Z,102205.69
2024-05-09T05:33:19.986Z,102217.34
2024-05-09T05:35:48.182Z,102230.31
2024-05-09T05:38:16.141Z,102226.97
2024-05-09T05:40:43.931Z,102216.16
2024-05-09T05:43:18.275Z,102228.31
2024-05-09T05:45:46.573Z,102213.78
2024-05-09T05:48:16.885Z,102213.97
2024-05-09T05:50:45.995Z,102215.44
2024-05-09T05:53:14.033Z,102190.91
2024-05-09T05:55:42.456Z,102210.81
2024-05-09T05:58:11.349Z,102227.34
2024-05-09T06:00:41.445Z,102248.28
2024-05-09T06:03:11.241Z,102246.25
2024-05-09T06:05:44.319Z,102225.28
2024-05-09T06:08:12.703Z,102238.13
2024-05-09T06:10:41.510Z,102217.91
2024-05-09T06:13:11.407Z,102239.69
2024-05-09T06:15:40.758Z,102240.16
2024-05-09T06:18:10.985Z,102225.53
2024-05-09T06:20:43.351Z,102231.75
2024-05-09T06:23:12.495Z,102236.03
2024-05-09T06:25:41.908Z,102227.47
2024-05-09T06:28:10.016Z,102208.00
2024-05-09T06:30:40.684Z,102236.13
2024-05-09T06:33:13.259Z,102225.81
2024-05-09T06:35:43.173Z,102222.03
2024-05-09T06:38:11.688Z,102223.31
2024-05-09T06:40:43.057Z,102235.09
2024-05-09T06:43:17.893Z,102206.66
2024-05-09T06:45:52.689Z,102237.78
2024-05-09T06:48:22.094Z,102230.28
2024-05-09T06:50:50.818Z,102240.47
2024-05-09T06:53:23.591Z,102218.09
2024-05-09T06:55:51.626Z,102227.94
2024-05-09T06:58:19.521Z,102188.78
2024-05-09T07:00:47.462Z,102227.06
2024-05-09T07:03:19.513Z,102231.19
2024-05-09T07:05:49.371Z,102211.84
2024-05-09T07:08:18.434Z,102207.75
2024-05-09T07:10:46.576Z,102223.91
2024-05-09T07:13:15.802Z,102217.47
2024-05-09T07:15:44.028Z,102231.91
2024-05-09T07:18:18.425Z,102231.00
2024-05-09T07:20:49.141Z,102231.81
2024-05-09T07:23:18.021Z,102199.38
2024-05-09T07:25:46.162Z,102236.00
2024-05-09T07:28:19.486Z,102233.00
2024-05-09T07:30:47.703Z,102208.00
2024-05-09T07:33:21.834Z,102236.00
2024-05-09T07:35:51.020Z,102211.47
2024-05-09T07:38:18.902Z,102229.13
2024-05-09T07:40:47.095Z,102232.78
2024-05-09T07:43:15.789Z,102235.00
2024-05-09T07:45:51.486Z,102233.59
2024-05-09T07:52:39.344Z,102213.56
2024-05-09T07:53:49.315Z,102228.13
2024-05-09T07:56:22.702Z,102206.09
2024-05-09T07:58:56.139Z,102225.63
2024-05-09T08:01:26.497Z,102216.38
2024-05-09T08:03:55.480Z,102177.97
2024-05-09T08:06:24.888Z,102185.03
2024-05-09T08:08:52.849Z,102207.84
2024-05-09T08:11:20.781Z,102182.75
2024-05-09T08:13:48.560Z,102203.91
2024-05-09T08:16:16.410Z,102207.34
2024-05-09T08:18:44.629Z,102208.03
2024-05-09T08:21:12.529Z,102200.31
2024-05-09T08:23:40.388Z,102202.03
2024-05-09T08:26:08.088Z,102204.94
2024-05-09T08:28:35.832Z,102200.25
2024-05-09T08:31:06.849Z,102176.56
2024-05-09T08:33:35.397Z,102191.00
2024-05-09T08:36:03.499Z,102180.16
2024-05-09T08:38:31.208Z,102194.38
2024-05-09T08:40:58.956Z,102195.03
2024-05-09T08:43:28.585Z,102195.19
2024-05-09T08:45:58.172Z,102192.47
2024-05-09T08:48:27.161Z,102196.88
2024-05-09T08:50:59.277Z,102196.81
2024-05-09T08:53:27.269Z,102158.53
2024-05-09T08:55:57.596Z,102198.16
2024-05-09T08:58:26.618Z,102163.34
2024-05-09T09:00:54.644Z,102173.88
2024-05-09T09:03:27.916Z,102180.75
2024-05-09T09:06:06.289Z,102187.50
2024-05-09T09:08:34.331Z,102189.44
2024-05-09T09:11:02.263Z,102180.50
2024-05-09T09:13:30.342Z,102180.63
2024-05-09T09:15:59.271Z,102173.88
2024-05-09T09:18:29.619Z,102173.69
2024-05-09T09:20:57.529Z,102181.44
2024-05-09T09:23:30.205Z,102153.34
2024-05-09T09:26:01.909Z,102174.84
2024-05-09T09:28:30.130Z,102165.69
2024-05-09T09:31:05.185Z,102152.41
2024-05-09T09:33:35.924Z,102168.59
2024-05-09T09:36:06.280Z,102154.09
2024-05-09T09:38:38.100Z,102173.47
2024-05-09T09:41:12.664Z,102172.97
2024-05-09T09:43:41.541Z,102148.03
2024-05-09T09:46:12.525Z,102166.81
2024-05-09T09:48:42.263Z,102149.78
2024-05-09T09:51:10.713Z,102152.88
2024-05-09T09:53:40.006Z,102143.03
2024-05-09T09:56:09.807Z,102129.59
2024-05-09T09:58:39.704Z,102117.41
2024-05-09T10:01:07.504Z,102149.38
2024-05-09T10:03:37.004Z,102147.56
2024-05-09T10:06:06.889Z,102144.28
2024-05-09T10:08:36.848Z,102116.47
2024-05-09T10:11:05.209Z,102136.16
2024-05-09T10:13:36.318Z,102149.75
2024-05-09T10:16:12.254Z,102130.84
2024-05-09T10:18:41.446Z,102151.63
2024-05-09T10:21:20.514Z,102122.06
2024-05-09T10:24:02.492Z,102151.22
2024-05-09T10:26:35.413Z,102133.25
2024-05-09T10:29:18.924Z,102126.78
2024-05-09T10:31:48.444Z,102139.16
2024-05-09T10:34:24.430Z,102133.13
2024-05-09T10:36:54.669Z,102115.78
2024-05-09T10:39:26.339Z,102122.50
2024-05-09T10:41:54.049Z,102116.44
2024-05-09T10:44:22.561Z,102127.81
2024-05-09T10:46:50.879Z,102129.56
2024-05-09T10:49:18.930Z,102128.47
2024-05-09T10:51:48.908Z,102109.19
2024-05-09T10:54:16.877Z,102101.41
2024-05-09T10:56:44.609Z,102094.81
2024-05-09T10:59:13.700Z,102111.63
2024-05-09T11:01:42.093Z,102082.41
2024-05-09T11:04:10.166Z,102101.84
2024-05-09T11:06:38.578Z,102102.31
2024-05-09T11:09:06.577Z,102093.91
2024-05-09T11:11:34.592Z,102098.91
2024-05-09T11:14:13.300Z,102101.81
2024-05-09T11:16:41.535Z,102103.38
2024-05-09T11:19:14.523Z,102088.22
2024-05-09T11:21:42.685Z,102071.88
2024-05-09T11:24:11.305Z,102086.53
2024-05-09T11:26:39.514Z,102060.66
2024-05-09T11:29:07.193Z,102084.81
2024-05-09T11:31:49.359Z,102089.72
2024-05-09T11:34:17.296Z,102080.78
2024-05-09T11:36:45.189Z,102085.09
2024-05-09T11:39:14.665Z,102067.03
2024-05-09T11:41:42.538Z,102078.56
2024-05-09T11:44:10.388Z,102036.91
2024-05-09T11:46:38.135Z,102058.81
2024-05-09T11:49:06.306Z,102021.97
2024-05-09T11:51:34.136Z,102052.06
2024-05-09T11:54:02.130Z,102067.72
2024-05-09T11:56:29.930Z,102063.97
2024-05-09T11:58:57.711Z,102053.78
2024-05-09T12:01:27.721Z,102023.19
2024-05-09T12:03:56.080Z,102037.72
2024-05-09T12:06:23.993Z,102021.00
2024-05-09T12:08:51.820Z,102059.66
2024-05-09T12:11:19.604Z,102058.28
2024-05-09T12:13:47.567Z,102030.56
2024-05-09T12:16:15.625Z,102042.47
2024-05-09T12:18:52.219Z,102031.81
2024-05-09T12:21:20.122Z,102019.84
2024-05-09T12:23:47.885Z,102057.09
2024-05-09T12:26:15.894Z,101989.88
2024-05-09T12:28:47.898Z,101984.22
2024-05-09T12:31:18.830Z,102028.03
2024-05-09T12:33:49.992Z,101966.66
2024-05-09T12:36:18.028Z,102016.47
2024-05-09T12:38:52.916Z,102020.25
2024-05-09T12:41:25.070Z,102010.94
2024-05-09T12:43:52.970Z,102008.88
2024-05-09T12:46:20.775Z,102018.56
2024-05-09T12:48:48.928Z,102005.88
2024-05-09T12:51:16.975Z,102002.44
2024-05-09T12:53:44.783Z,101971.66
2024-05-09T12:56:12.463Z,101995.22
2024-05-09T12:58:40.308Z,102007.53
2024-05-09T13:01:08.092Z,102009.19
2024-05-09T13:03:35.914Z,101995.75
2024-05-09T13:06:03.831Z,101984.56
2024-05-09T13:08:31.640Z,101988.94
2024-05-09T13:10:59.710Z,101953.84
2024-05-09T13:13:29.204Z,101992.47
2024-05-09T13:15:57.004Z,101974.72
2024-05-09T13:18:24.876Z,101970.53
2024-05-09T13:20:55.216Z,101954.28
2024-05-09T13:23:23.002Z,101954.91
2024-05-09T13:25:50.768Z,101898.97
2024-05-09T13:28:18.804Z,101946.59
2024-05-09T13:30:47.169Z,101958.31
2024-05-09T13:33:15.080Z,101968.72
2024-05-09T13:35:47.497Z,101984.09
2024-05-09T13:38:20.540Z,101977.19
2024-05-09T13:40:49.360Z,101977.22
2024-05-09T13:43:18.415Z,101963.84
2024-05-09T13:45:46.738Z,101950.66
2024-05-09T13:48:14.869Z,101953.41
2024-05-09T13:50:42.981Z,101949.66
2024-05-09T13:53:10.756Z,101931.56
2024-05-09T13:55:39.710Z,101954.22
2024-05-09T13:58:08.634Z,101952.97
2024-05-09T14:00:45.052Z,101932.66
2024-05-09T14:03:19.435Z,101932.09
2024-05-09T14:05:50.854Z,101952.28
2024-05-09T14:08:21.490Z,101952.16
2024-05-09T14:10:50.006Z,101946.47
2024-05-09T14:13:18.313Z,101946.63
2024-05-09T14:15:47.490Z,101919.47
2024-05-09T14:18:15.446Z,101950.56
2024-05-09T14:20:43.591Z,101924.94
2024-05-09T14:23:11.811Z,101918.47
2024-05-09T14:25:42.704Z,101937.56
2024-05-09T14:28:13.184Z,101911.19
2024-05-09T14:30:43.017Z,101932.56
2024-05-09T14:33:11.574Z,101916.16
2024-05-09T14:35:39.689Z,101904.63
2024-05-09T14:38:09.152Z,101911.59
2024-05-09T14:40:42.122Z,101918.13
2024-05-09T14:43:15.968Z,101921.03
2024-05-09T14:45:45.038Z,101881.84
2024-05-09T14:48:15.571Z,101911.38
2024-05-09T14:50:43.988Z,101895.19
2024-05-09T14:53:13.679Z,101899.09
2024-05-09T14:55:43.493Z,101909.19
2024-05-09T14:58:13.104Z,101905.47
2024-05-09T15:00:46.719Z,101903.25
2024-05-09T15:03:22.423Z,101882.59
2024-05-09T15:05:51.941Z,101891.59
2024-05-09T15:08:20.565Z,101889.28
2024-05-09T15:10:49.971Z,101889.88
2024-05-09T15:13:19.473Z,101890.47
2024-05-09T15:15:47.383Z,101877.28
2024-05-09T15:18:15.988Z,101882.00
2024-05-09T15:20:44.911Z,101854.44
2024-05-09T15:23:13.288Z,101862.16
2024-05-09T15:25:41.180Z,101839.41
2024-05-09T15:28:09.389Z,101862.03
2024-05-09T15:30:37.803Z,101871.94
2024-05-09T15:33:07.326Z,101852.44
2024-05-09T15:35:41.103Z,101856.03
2024-05-09T15:38:10.755Z,101866.66
2024-05-09T15:40:40.553Z,101846.66
2024-05-09T15:43:11.288Z,101868.63
2024-05-09T15:45:41.243Z,101857.00
2024-05-09T15:48:12.397Z,101865.09
2024-05-09T15:50:42.075Z,101790.22
2024-05-09T15:53:13.316Z,101812.38
2024-05-09T15:55:42.722Z,101870.16
2024-05-09T15:58:11.298Z,101819.28
2024-05-09T16:00:42.384Z,101866.88
2024-05-09T16:03:14.150Z,101856.22
2024-05-09T16:05:47.935Z,101860.69
2024-05-09T16:08:16.891Z,101842.97
2024-05-09T16:10:48.204Z,101852.78
2024-05-09T16:13:17.827Z,101831.31
2024-05-09T16:15:46.810Z,101859.28
2024-05-09T16:18:14.989Z,101818.22
2024-05-09T16:20:44.737Z,101835.94
2024-05-09T16:23:14.103Z,101836.44
2024-05-09T16:25:45.342Z,101836.56
2024-05-09T16:28:15.556Z,101847.22
2024-05-09T16:30:43.404Z,101834.66
2024-05-09T16:33:14.525Z,101838.63
2024-05-09T16:35:42.570Z,101853.84
2024-05-09T16:38:10.313Z,101787.31
2024-05-09T16:40:40.693Z,101807.56
2024-05-09T16:43:16.594Z,101829.72
2024-05-09T16:45:45.469Z,101808.06
2024-05-09T16:48:14.826Z,101801.47
2024-05-09T16:50:43.468Z,101823.47
2024-05-09T16:53:11.526Z,101846.13
2024-05-09T16:55:39.374Z,101839.06
2024-05-09T16:58:12.380Z,101834.69
2024-05-09T17:00:43.393Z,101831.31
2024-05-09T17:03:15.367Z,101841.50
2024-05-09T17:05:46.910Z,101823.56
2024-05-09T17:08:20.430Z,101844.09
2024-05-09T17:10:49.483Z,101834.59
2024-05-09T17:13:18.539Z,101833.56
2024-05-09T17:15:47.151Z,101844.09
2024-05-09T17:18:15.218Z,101835.78
2024-05-09T17:20:43.026Z,101828.44
2024-05-09T17:23:14.427Z,101844.00
2024-05-09T17:25:43.582Z,101846.91
2024-05-09T17:28:12.246Z,101840.06
2024-05-09T17:30:42.088Z,101829.97
2024-05-09T17:33:13.843Z,101836.56
2024-05-09T17:35:42.184Z,101845.34
2024-05-09T17:38:10.013Z,101852.75
2024-05-09T17:40:39.694Z,101837.97
2024-05-09T17:43:09.847Z,101850.31
2024-05-09T17:45:42.809Z,101850.06
2024-05-09T17:48:12.239Z,101831.53
2024-05-09T17:50:41.599Z,101848.03
2024-05-09T17:53:10.862Z,101835.59
2024-05-09T17:55:40.225Z,101833.34
2024-05-09T17:58:08.644Z,101828.97
2024-05-09T18:00:40.040Z,101838.38
2024-05-09T18:03:12.242Z,101831.63
2024-05-09T18:05:42.010Z,101842.66
2024-05-09T18:08:10.371Z,101827.00
2024-05-09T18:10:39.937Z,101850.31
2024-05-09T18:13:09.588Z,101842.59
2024-05-09T18:15:38.186Z,101849.94
2024-05-09T18:18:07.426Z,101834.06
2024-05-09T18:20:42.541Z,101851.28
2024-05-09T18:23:16.674Z,101849.31
2024-05-09T18:25:46.575Z,101849.47
2024-05-09T18:28:14.941Z,101833.81
2024-05-09T18:30:43.171Z,101827.56
2024-05-09T18:33:11.724Z,101834.06
2024-05-09T18:35:43.157Z,101833.88
2024-05-09T18:38:10.999Z,101836.25
2024-05-09T18:40:40.212Z,101852.28
2024-05-09T18:43:09.597Z,101855.41
2024-05-09T18:45:38.756Z,101841.63
2024-05-09T18:48:09.691Z,101857.06
2024-05-09T18:50:40.276Z,101845.94
2024-05-09T18:53:13.444Z,101863.16
2024-05-09T18:55:44.789Z,101859.31
2024-05-09T18:58:12.633Z,101829.50
2024-05-09T19:00:42.963Z,101838.06
2024-05-09T19:03:14.536Z,101861.13
2024-05-09T19:05:45.227Z,101857.31
2024-05-09T19:08:15.182Z,101862.63
2024-05-09T19:10:45.641Z,101868.09
2024-05-09T19:13:14.700Z,101843.44
2024-05-09T19:15:43.783Z,101866.81
2024-05-09T19:18:14.205Z,101868.84
2024-05-09T19:20:42.782Z,101871.75
2024-05-09T19:23:11.659Z,101872.66
2024-05-09T19:25:39.829Z,101879.03
2024-05-09T19:28:07.734Z,101861.69
2024-05-09T19:30:40.289Z,101855.94
2024-05-09T19:33:13.089Z,101879.72
2024-05-09T19:35:42.600Z,101877.56
2024-05-09T19:38:10.582Z,101886.09
2024-05-09T19:40:38.417Z,101890.47
2024-05-09T19:43:06.886Z,101889.78
2024-05-09T19:45:36.153Z,101871.47
2024-05-09T19:48:05.833Z,101874.91
2024-05-09T19:50:41.409Z,101885.69
2024-05-09T19:53:12.889Z,101889.59
2024-05-09T19:55:42.219Z,101885.72
2024-05-09T19:58:11.542Z,101888.91
2024-05-09T20:00:42.491Z,101881.38
2024-05-09T20:03:16.123Z,101894.19
2024-05-09T20:05:46.876Z,101882.41
2024-05-09T20:08:15.361Z,101865.63
2024-05-09T20:10:43.366Z,101894.50
2024-05-09T20:13:11.740Z,101900.69
2024-05-09T20:15:40.055Z,101895.38
2024-05-09T20:18:08.096Z,101905.00
2024-05-09T20:20:40.399Z,101905.91
2024-05-09T20:23:12.056Z,101916.94
2024-05-09T20:25:41.053Z,101883.97
2024-05-09T20:28:08.999Z,101880.75
2024-05-09T20:30:37.151Z,101919.28
2024-05-09T20:33:07.629Z,101919.13
2024-05-09T20:35:36.830Z,101899.88
2024-05-09T20:38:05.088Z,101871.34
2024-05-09T20:40:37.462Z,101919.84
2024-05-09T20:43:09.729Z,101919.84
2024-05-09T20:45:38.139Z,101895.78
2024-05-09T20:48:07.574Z,101914.06
2024-05-09T20:50:39.750Z,101904.13
2024-05-09T20:53:15.298Z,101893.44
2024-05-09T20:55:47.133Z,101912.41
2024-05-09T20:58:15.210Z,101923.72
2024-05-09T21:00:45.686Z,101907.78
2024-05-09T21:03:16.875Z,101912.63
2024-05-09T21:05:46.672Z,101914.53
2024-05-09T21:08:14.843Z,101905.31
2024-05-09T21:10:42.827Z,101911.91
2024-05-09T21:13:10.655Z,101915.75
2024-05-09T21:15:38.485Z,101911.13
2024-05-09T21:18:06.410Z,101913.09
2024-05-09T21:20:34.962Z,101912.97
2024-05-09T21:23:03.745Z,101912.38
2024-05-09T21:25:32.523Z,101925.13
2024-05-09T21:28:00.754Z,101922.06
2024-05-09T21:30:38.414Z,101927.31
2024-05-09T21:33:11.776Z,101931.34
2024-05-09T21:35:42.376Z,101901.88
2024-05-09T21:38:10.285Z,101933.66
2024-05-09T21:40:38.831Z,101932.94
2024-05-09T21:43:08.140Z,101939.22
2024-05-09T21:45:37.083Z,101925.63
2024-05-09T21:48:06.199Z,101911.94
2024-05-09T21:50:40.109Z,101922.91
2024-05-09T21:53:13.644Z,101920.56
2024-05-09T21:55:42.837Z,101919.09
2024-05-09T21:58:12.561Z,101901.56
2024-05-09T22:00:42.986Z,101914.28
2024-05-09T22:03:12.025Z,101908.47
2024-05-09T22:05:43.611Z,101881.66
2024-05-09T22:08:11.520Z,101913.91
2024-05-09T22:10:39.305Z,101883.41
2024-05-09T22:13:08.243Z,101911.19
2024-05-09T22:15:38.492Z,101910.56
2024-05-09T22:18:09.056Z,101913.81
2024-05-09T22:20:43.645Z,101897.88
2024-05-09T22:23:12.643Z,101911.56
2024-05-09T22:25:40.389Z,101922.72
2024-05-09T22:28:08.520Z,101896.06
2024-05-09T22:30:39.272Z,101918.50
2024-05-09T22:33:12.047Z,101909.50
2024-05-09T22:35:41.331Z,101913.06
2024-05-09T22:38:09.591Z,101914.81
2024-05-09T22:40:46.114Z,101896.66
2024-05-09T22:43:23.071Z,101910.78
2024-05-09T22:45:55.725Z,101925.72
2024-05-09T22:48:25.085Z,101892.47
2024-05-09T22:50:54.495Z,101907.31
2024-05-09T22:53:25.852Z,101893.75
2024-05-09T22:55:54.247Z,101915.72
2024-05-09T22:58:22.357Z,101912.13
2024-05-09T23:00:50.580Z,101892.84
2024-05-09T23:03:21.263Z,101905.81
2024-05-09T23:05:49.665Z,101902.38
2024-05-09T23:08:17.444Z,101904.97
2024-05-09T23:10:45.213Z,101889.88
2024-05-09T23:13:13.249Z,101896.91
2024-05-09T23:15:41.039Z,101898.25
2024-05-09T23:18:09.018Z,101877.41
2024-05-09T23:20:39.381Z,101909.88
2024-05-09T23:23:12.104Z,101901.84
2024-05-09T23:25:43.006Z,101905.75
2024-05-09T23:28:11.869Z,101873.75
2024-05-09T23:30:41.237Z,101897.63
2024-05-09T23:33:14.227Z,101909.31
2024-05-09T23:35:46.048Z,101909.03
2024-05-09T23:38:14.269Z,101916.34
2024-05-09T23:40:42.978Z,101893.47
2024-05-09T23:43:12.660Z,101875.41
2024-05-09T23:45:41.527Z,101913.63
2024-05-09T23:48:10.084Z,101885.28
2024-05-09T23:50:39.546Z,101895.22
2024-05-09T23:53:09.544Z,101916.34
2024-05-09T23:55:38.135Z,101903.13
2024-05-09T23:58:07.030Z,101920.50
